createdAt,value
2022-10-19T00:00:10.120Z,90.20
2022-10-19T00:01:10.116Z,90.41
2022-10-19T00:02:10.224Z,90.00
2022-10-19T00:03:10.071Z,90.00
2022-10-19T00:04:10.052Z,89.90
2022-10-19T00:05:10.046Z,90.10
2022-10-19T00:06:10.032Z,89.90
2022-10-19T00:07:10.014Z,89.90
2022-10-19T00:08:10.003Z,90.10
2022-10-19T00:09:09.983Z,89.59
2022-10-19T00:10:09.988Z,89.59
2022-10-19T00:11:09.965Z,89.39
2022-10-19T00:12:10.041Z,89.28
2022-10-19T00:13:09.937Z,89.08
2022-10-19T00:14:10.033Z,88.57
2022-10-19T00:15:09.907Z,88.88
2022-10-19T00:16:11.431Z,88.78
2022-10-19T00:17:09.884Z,88.06
2022-10-19T00:18:09.883Z,88.47
2022-10-19T00:19:09.857Z,88.06
2022-10-19T00:20:09.863Z,87.92
2022-10-19T00:21:09.855Z,87.76
2022-10-19T00:22:13.024Z,88.02
2022-10-19T00:23:09.909Z,87.92
2022-10-19T00:24:09.874Z,88.22
2022-10-19T00:25:09.798Z,88.22
2022-10-19T00:26:09.775Z,88.43
2022-10-19T00:27:09.767Z,88.57
2022-10-19T00:28:09.749Z,88.57
2022-10-19T00:29:09.837Z,88.78
2022-10-19T00:30:09.715Z,88.78
2022-10-19T00:31:09.713Z,89.08
2022-10-19T00:32:09.707Z,88.98
2022-10-19T00:33:09.678Z,89.28
2022-10-19T00:34:09.682Z,89.49
2022-10-19T00:35:09.660Z,89.59
2022-10-19T00:36:09.647Z,89.39
2022-10-19T00:37:09.644Z,89.49
2022-10-19T00:38:09.638Z,89.79
2022-10-19T00:39:09.608Z,89.59
2022-10-19T00:40:09.598Z,89.49
2022-10-19T00:41:09.588Z,89.59
2022-10-19T00:42:09.684Z,89.90
2022-10-19T00:43:09.546Z,89.90
2022-10-19T00:44:09.537Z,89.59
2022-10-19T00:45:09.516Z,89.49
2022-10-19T00:46:09.530Z,89.59
2022-10-19T00:47:09.506Z,89.90
2022-10-19T00:48:09.477Z,89.59
2022-10-19T00:49:10.907Z,89.90
2022-10-19T00:50:09.476Z,89.69
2022-10-19T00:51:09.456Z,90.20
2022-10-19T00:52:09.446Z,90.31
2022-10-19T00:53:09.448Z,90.20
2022-10-19T00:54:09.423Z,90.51
2022-10-19T00:55:09.421Z,90.61
2022-10-19T00:56:09.396Z,90.71
2022-10-19T00:57:09.382Z,90.71
2022-10-19T00:58:09.358Z,90.61
2022-10-19T00:59:09.358Z,90.81
2022-10-19T01:00:09.362Z,90.92
2022-10-19T01:01:09.415Z,90.51
2022-10-19T01:02:09.307Z,91.02
2022-10-19T01:03:09.295Z,90.71
2022-10-19T01:04:09.297Z,90.61
2022-10-19T01:05:09.270Z,90.20
2022-10-19T01:06:09.260Z,89.69
2022-10-19T01:07:09.246Z,89.59
2022-10-19T01:08:09.239Z,89.59
2022-10-19T01:09:09.240Z,89.49
2022-10-19T01:10:09.291Z,89.39
2022-10-19T01:11:09.259Z,89.39
2022-10-19T01:12:09.188Z,89.39
2022-10-19T01:13:09.168Z,89.28
2022-10-19T01:14:09.156Z,89.39
2022-10-19T01:15:09.157Z,88.78
2022-10-19T01:16:09.128Z,88.88
2022-10-19T01:17:09.117Z,89.08
2022-10-19T01:18:09.119Z,88.37
2022-10-19T01:19:09.090Z,88.47
2022-10-19T01:20:09.089Z,87.85
2022-10-19T01:21:09.059Z,87.76
2022-10-19T01:22:09.057Z,87.96
2022-10-19T01:23:09.041Z,87.55
2022-10-19T01:24:09.030Z,87.96
2022-10-19T01:25:09.011Z,87.35
2022-10-19T01:26:09.022Z,87.04
2022-10-19T01:27:09.018Z,87.55
2022-10-19T01:28:08.978Z,87.76
2022-10-19T01:29:08.987Z,87.14
2022-10-19T01:30:08.958Z,86.33
2022-10-19T01:31:08.956Z,85.51
2022-10-19T01:32:08.938Z,85.61
2022-10-19T01:33:08.908Z,85.27
2022-10-19T01:34:08.900Z,85.47
2022-10-19T01:35:08.884Z,85.82
2022-10-19T01:36:08.905Z,86.33
2022-10-19T01:37:08.858Z,86.12
2022-10-19T01:38:08.928Z,85.92
2022-10-19T01:39:08.847Z,86.02
2022-10-19T01:40:08.809Z,86.12
2022-10-19T01:41:08.809Z,86.33
2022-10-19T01:42:08.799Z,85.92
2022-10-19T01:43:08.788Z,86.02
2022-10-19T01:44:08.778Z,85.71
2022-10-19T01:45:08.751Z,85.61
2022-10-19T01:46:08.742Z,86.02
2022-10-19T01:47:08.728Z,85.00
2022-10-19T01:48:08.721Z,85.10
2022-10-19T01:49:08.712Z,85.41
2022-10-19T01:50:08.729Z,85.41
2022-10-19T01:51:08.672Z,85.00
2022-10-19T01:52:08.671Z,85.41
2022-10-19T01:53:08.681Z,85.30
2022-10-19T01:54:08.640Z,85.21
2022-10-19T01:55:08.640Z,85.30
2022-10-19T01:56:08.617Z,85.10
2022-10-19T01:57:08.599Z,85.61
2022-10-19T01:58:09.679Z,85.51
2022-10-19T01:59:08.572Z,85.61
2022-10-19T02:00:08.578Z,85.30
2022-10-19T02:01:08.668Z,85.82
2022-10-19T02:02:08.553Z,86.02
2022-10-19T02:03:08.522Z,86.12
2022-10-19T02:04:08.552Z,86.02
2022-10-19T02:05:08.501Z,86.43
2022-10-19T02:06:08.503Z,86.22
2022-10-19T02:07:08.481Z,86.22
2022-10-19T02:08:08.462Z,86.33
2022-10-19T02:09:08.451Z,86.63
2022-10-19T02:10:15.561Z,86.33
2022-10-19T02:11:08.426Z,86.53
2022-10-19T02:12:08.418Z,86.94
2022-10-19T02:13:08.411Z,86.63
2022-10-19T02:14:08.376Z,86.83
2022-10-19T02:15:08.365Z,86.73
2022-10-19T02:16:08.381Z,86.94
2022-10-19T02:17:08.368Z,86.43
2022-10-19T02:18:08.339Z,86.33
2022-10-19T02:19:08.326Z,86.43
2022-10-19T02:20:08.336Z,86.63
2022-10-19T02:21:08.335Z,86.73
2022-10-19T02:22:08.311Z,86.43
2022-10-19T02:23:08.281Z,86.43
2022-10-19T02:24:08.277Z,86.63
2022-10-19T02:25:08.257Z,86.12
2022-10-19T02:26:08.227Z,86.02
2022-10-19T02:27:08.218Z,85.82
2022-10-19T02:28:08.208Z,85.92
2022-10-19T02:29:08.185Z,86.02
2022-10-19T02:30:08.177Z,86.22
2022-10-19T02:31:08.187Z,86.02
2022-10-19T02:32:08.175Z,85.41
2022-10-19T02:33:08.160Z,85.30
2022-10-19T02:34:08.139Z,85.30
2022-10-19T02:35:08.119Z,85.00
2022-10-19T02:36:08.107Z,85.51
2022-10-19T02:37:08.083Z,85.21
2022-10-19T02:38:08.121Z,85.30
2022-10-19T02:39:08.058Z,85.41
2022-10-19T02:40:08.053Z,85.82
2022-10-19T02:41:08.049Z,85.30
2022-10-19T02:42:08.041Z,85.00
2022-10-19T02:43:08.032Z,85.00
2022-10-19T02:44:07.999Z,85.00
2022-10-19T02:45:08.009Z,85.00
2022-10-19T02:46:07.978Z,85.00
2022-10-19T02:47:07.961Z,84.59
2022-10-19T02:48:07.967Z,84.69
2022-10-19T02:49:07.938Z,85.00
2022-10-19T02:50:07.937Z,84.90
2022-10-19T02:51:07.947Z,84.80
2022-10-19T02:52:07.899Z,85.30
2022-10-19T02:53:07.913Z,85.30
2022-10-19T02:54:07.868Z,85.30
2022-10-19T02:55:07.867Z,85.21
2022-10-19T02:56:07.851Z,85.41
2022-10-19T02:57:07.831Z,85.71
2022-10-19T02:58:07.831Z,86.02
2022-10-19T02:59:07.811Z,86.02
2022-10-19T03:00:07.790Z,85.92
2022-10-19T03:01:07.895Z,86.02
2022-10-19T03:02:07.799Z,86.43
2022-10-19T03:03:07.762Z,86.22
2022-10-19T03:04:07.750Z,86.53
2022-10-19T03:05:07.730Z,86.73
2022-10-19T03:06:07.730Z,86.83
2022-10-19T03:07:07.691Z,86.94
2022-10-19T03:08:07.708Z,86.33
2022-10-19T03:09:07.660Z,86.53
2022-10-19T03:10:07.672Z,86.73
2022-10-19T03:11:07.672Z,86.83
2022-10-19T03:12:07.643Z,86.94
2022-10-19T03:13:07.653Z,86.73
2022-10-19T03:14:07.621Z,86.94
2022-10-19T03:15:07.601Z,87.04
2022-10-19T03:16:07.594Z,87.04
2022-10-19T03:17:07.611Z,87.24
2022-10-19T03:18:07.602Z,87.14
2022-10-19T03:19:07.578Z,87.45
2022-10-19T03:20:07.530Z,87.45
2022-10-19T03:21:07.539Z,87.65
2022-10-19T03:22:07.500Z,87.35
2022-10-19T03:23:07.492Z,87.55
2022-10-19T03:24:07.481Z,87.65
2022-10-19T03:25:07.463Z,87.85
2022-10-19T03:26:09.997Z,87.96
2022-10-19T03:27:07.431Z,88.20
2022-10-19T03:28:07.485Z,88.20
2022-10-19T03:29:07.450Z,88.41
2022-10-19T03:30:07.412Z,88.51
2022-10-19T03:31:07.424Z,88.82
2022-10-19T03:32:07.385Z,88.61
2022-10-19T03:33:07.365Z,88.82
2022-10-19T03:34:07.393Z,89.02
2022-10-19T03:35:07.342Z,89.23
2022-10-19T03:36:07.392Z,89.32
2022-10-19T03:37:07.312Z,89.43
2022-10-19T03:38:07.310Z,89.23
2022-10-19T03:39:08.733Z,89.32
2022-10-19T03:40:07.293Z,89.43
2022-10-19T03:41:07.289Z,89.43
2022-10-19T03:42:07.251Z,89.63
2022-10-19T03:43:07.282Z,89.43
2022-10-19T03:44:07.243Z,89.53
2022-10-19T03:45:07.222Z,89.53
2022-10-19T03:46:07.214Z,89.53
2022-10-19T03:47:07.195Z,89.53
2022-10-19T03:48:07.173Z,89.53
2022-10-19T03:49:07.214Z,89.53
2022-10-19T03:50:07.158Z,89.53
2022-10-19T03:51:07.171Z,89.43
2022-10-19T03:52:07.142Z,89.53
2022-10-19T03:53:07.115Z,89.67
2022-10-19T03:54:07.092Z,89.78
2022-10-19T03:55:07.084Z,89.88
2022-10-19T03:56:07.070Z,89.88
2022-10-19T03:57:07.064Z,89.88
2022-10-19T03:58:07.094Z,89.88
2022-10-19T03:59:07.028Z,89.58
2022-10-19T04:00:07.015Z,89.37
2022-10-19T04:01:07.046Z,89.67
2022-10-19T04:02:06.985Z,89.47
2022-10-19T04:03:07.012Z,89.37
2022-10-19T04:04:06.970Z,89.17
2022-10-19T04:05:06.955Z,88.96
2022-10-19T04:06:06.943Z,88.96
2022-10-19T04:07:06.944Z,89.17
2022-10-19T04:08:06.913Z,89.06
2022-10-19T04:09:06.932Z,88.85
2022-10-19T04:10:06.890Z,88.85
2022-10-19T04:11:06.907Z,88.85
2022-10-19T04:12:06.871Z,88.55
2022-10-19T04:13:06.863Z,88.35
2022-10-19T04:14:06.892Z,88.24
2022-10-19T04:15:06.894Z,87.94
2022-10-19T04:16:06.816Z,87.94
2022-10-19T04:17:06.827Z,88.14
2022-10-19T04:18:06.796Z,88.14
2022-10-19T04:19:06.795Z,88.24
2022-10-19T04:20:06.765Z,88.24
2022-10-19T04:21:06.780Z,88.24
2022-10-19T04:22:06.735Z,88.45
2022-10-19T04:23:06.784Z,88.45
2022-10-19T04:24:06.693Z,88.14
2022-10-19T04:25:06.695Z,87.94
2022-10-19T04:26:06.665Z,88.04
2022-10-19T04:27:06.665Z,87.94
2022-10-19T04:28:06.648Z,88.04
2022-10-19T04:29:06.724Z,88.04
2022-10-19T04:30:06.637Z,88.24
2022-10-19T04:31:06.624Z,87.53
2022-10-19T04:32:06.628Z,87.43
2022-10-19T04:33:06.606Z,87.73
2022-10-19T04:34:06.616Z,87.73
2022-10-19T04:35:06.616Z,87.84
2022-10-19T04:36:06.555Z,87.63
2022-10-19T04:37:06.563Z,88.35
2022-10-19T04:38:06.530Z,87.73
2022-10-19T04:39:06.517Z,87.32
2022-10-19T04:40:07.421Z,87.43
2022-10-19T04:41:06.567Z,87.84
2022-10-19T04:42:06.468Z,87.84
2022-10-19T04:43:06.457Z,87.53
2022-10-19T04:44:06.448Z,87.94
2022-10-19T04:45:06.436Z,87.73
2022-10-19T04:46:06.423Z,87.32
2022-10-19T04:47:06.416Z,87.53
2022-10-19T04:48:06.416Z,87.32
2022-10-19T04:49:06.395Z,87.43
2022-10-19T04:50:06.374Z,87.84
2022-10-19T04:51:06.375Z,88.24
2022-10-19T04:52:06.346Z,87.73
2022-10-19T04:53:06.344Z,87.32
2022-10-19T04:54:06.314Z,87.12
2022-10-19T04:55:06.315Z,87.32
2022-10-19T04:56:06.299Z,87.43
2022-10-19T04:57:06.288Z,87.32
2022-10-19T04:58:06.268Z,87.63
2022-10-19T04:59:06.275Z,87.63
2022-10-19T05:00:06.270Z,87.73
2022-10-19T05:01:06.305Z,87.53
2022-10-19T05:02:06.208Z,87.43
2022-10-19T05:03:06.224Z,87.73
2022-10-19T05:04:06.256Z,87.73
2022-10-19T05:05:06.201Z,87.63
2022-10-19T05:06:06.157Z,87.53
2022-10-19T05:07:06.155Z,87.73
2022-10-19T05:08:06.126Z,87.84
2022-10-19T05:09:06.132Z,87.73
2022-10-19T05:10:06.106Z,87.84
2022-10-19T05:11:06.122Z,87.73
2022-10-19T05:12:06.089Z,87.73
2022-10-19T05:13:06.108Z,87.73
2022-10-19T05:14:06.057Z,87.94
2022-10-19T05:15:06.051Z,88.14
2022-10-19T05:16:06.078Z,87.53
2022-10-19T05:17:06.037Z,87.63
2022-10-19T05:18:06.038Z,87.32
2022-10-19T05:19:06.000Z,87.53
2022-10-19T05:20:05.967Z,87.63
2022-10-19T05:21:06.047Z,87.73
2022-10-19T05:22:05.938Z,87.73
2022-10-19T05:23:07.318Z,87.53
2022-10-19T05:24:05.927Z,87.43
2022-10-19T05:25:05.927Z,87.63
2022-10-19T05:26:05.927Z,87.53
2022-10-19T05:27:05.901Z,87.73
2022-10-19T05:28:05.908Z,87.73
2022-10-19T05:29:05.903Z,87.84
2022-10-19T05:30:05.850Z,87.84
2022-10-19T05:31:05.856Z,87.94
2022-10-19T05:32:05.859Z,88.04
2022-10-19T05:33:05.934Z,88.14
2022-10-19T05:34:05.814Z,88.14
2022-10-19T05:35:05.835Z,88.14
2022-10-19T05:36:05.757Z,88.35
2022-10-19T05:37:05.747Z,88.35
2022-10-19T05:38:05.729Z,88.45
2022-10-19T05:39:05.747Z,88.65
2022-10-19T05:40:05.727Z,88.76
2022-10-19T05:41:05.718Z,88.85
2022-10-19T05:42:05.717Z,88.96
2022-10-19T05:43:05.688Z,89.26
2022-10-19T05:44:05.720Z,89.37
2022-10-19T05:45:05.673Z,89.47
2022-10-19T05:46:05.644Z,89.58
2022-10-19T05:47:05.632Z,89.67
2022-10-19T05:48:05.667Z,89.67
2022-10-19T05:49:05.599Z,89.92
2022-10-19T05:50:05.606Z,90.02
2022-10-19T05:51:05.589Z,89.82
2022-10-19T05:52:05.557Z,90.02
2022-10-19T05:53:05.558Z,90.12
2022-10-19T05:54:05.553Z,90.12
2022-10-19T05:55:05.553Z,90.23
2022-10-19T05:56:05.538Z,90.53
2022-10-19T05:57:05.492Z,90.64
2022-10-19T05:58:05.493Z,90.64
2022-10-19T05:59:05.482Z,90.74
2022-10-19T06:00:05.483Z,90.84
2022-10-19T06:01:05.441Z,91.25
2022-10-19T06:02:05.496Z,91.76
2022-10-19T06:03:05.417Z,92.37
2022-10-19T06:04:05.426Z,93.09
2022-10-19T06:05:05.389Z,93.70
2022-10-19T06:06:05.363Z,94.15
2022-10-19T06:07:05.375Z,94.26
2022-10-19T06:08:05.422Z,94.77
2022-10-19T06:09:05.341Z,95.28
2022-10-19T06:10:05.349Z,95.69
2022-10-19T06:11:05.361Z,96.14
2022-10-19T06:12:05.339Z,96.66
2022-10-19T06:13:05.291Z,97.16
2022-10-19T06:14:05.276Z,97.37
2022-10-19T06:15:05.882Z,97.98
2022-10-19T06:16:05.294Z,98.49
2022-10-19T06:17:05.241Z,98.70
2022-10-19T06:18:05.219Z,99.01
2022-10-19T06:19:05.245Z,99.27
2022-10-19T06:20:05.190Z,99.37
2022-10-19T06:21:05.190Z,99.47
2022-10-19T06:22:05.180Z,99.47
2022-10-19T06:23:05.159Z,99.68
2022-10-19T06:24:05.148Z,99.68
2022-10-19T06:25:05.131Z,99.57
2022-10-19T06:26:05.120Z,99.68
2022-10-19T06:27:05.111Z,99.68
2022-10-19T06:28:05.109Z,99.41
2022-10-19T06:29:05.081Z,99.11
2022-10-19T06:30:05.087Z,99.11
2022-10-19T06:31:08.440Z,98.90
2022-10-19T06:32:05.054Z,98.90
2022-10-19T06:33:05.076Z,98.90
2022-10-19T06:34:05.071Z,98.80
2022-10-19T06:35:04.992Z,98.65
2022-10-19T06:36:04.994Z,97.88
2022-10-19T06:37:05.001Z,97.42
2022-10-19T06:38:04.968Z,97.02
2022-10-19T06:39:04.969Z,96.30
2022-10-19T06:40:07.236Z,95.79
2022-10-19T06:41:05.009Z,95.38
2022-10-19T06:42:04.914Z,94.97
2022-10-19T06:43:04.921Z,94.56
2022-10-19T06:44:04.893Z,94.73
2022-10-19T06:45:04.871Z,94.73
2022-10-19T06:46:04.857Z,94.52
2022-10-19T06:47:04.842Z,94.32
2022-10-19T06:48:07.491Z,93.80
2022-10-19T06:49:04.836Z,93.70
2022-10-19T06:50:04.812Z,93.70
2022-10-19T06:51:06.304Z,93.50
2022-10-19T06:52:04.793Z,93.40
2022-10-19T06:53:04.765Z,93.15
2022-10-19T06:54:04.777Z,93.45
2022-10-19T06:55:04.744Z,93.76
2022-10-19T06:56:04.719Z,93.66
2022-10-19T06:57:04.706Z,92.74
2022-10-19T06:58:04.689Z,92.74
2022-10-19T06:59:04.681Z,93.05
2022-10-19T07:00:04.692Z,92.74
2022-10-19T07:01:04.734Z,92.54
2022-10-19T07:02:04.633Z,92.39
2022-10-19T07:03:04.633Z,92.59
2022-10-19T07:04:04.620Z,91.88
2022-10-19T07:05:07.025Z,91.67
2022-10-19T07:06:04.620Z,92.08
2022-10-19T07:07:04.615Z,92.08
2022-10-19T07:08:04.625Z,91.16
2022-10-19T07:09:04.607Z,91.37
2022-10-19T07:10:04.554Z,91.47
2022-10-19T07:11:04.537Z,91.37
2022-10-19T07:12:04.523Z,90.86
2022-10-19T07:13:04.501Z,91.16
2022-10-19T07:14:04.495Z,91.06
2022-10-19T07:15:04.484Z,90.75
2022-10-19T07:16:04.483Z,91.16
2022-10-19T07:17:04.457Z,90.75
2022-10-19T07:18:04.435Z,90.86
2022-10-19T07:19:04.420Z,90.66
2022-10-19T07:20:04.414Z,90.75
2022-10-19T07:21:04.424Z,91.06
2022-10-19T07:22:04.405Z,91.06
2022-10-19T07:23:04.386Z,91.02
2022-10-19T07:24:04.364Z,90.92
2022-10-19T07:25:04.352Z,90.51
2022-10-19T07:26:04.355Z,90.20
2022-10-19T07:27:04.324Z,90.41
2022-10-19T07:28:04.325Z,90.51
2022-10-19T07:29:04.301Z,90.81
2022-10-19T07:30:04.291Z,90.61
2022-10-19T07:31:04.271Z,90.10
2022-10-19T07:32:04.263Z,90.20
2022-10-19T07:33:04.331Z,90.20
2022-10-19T07:34:04.224Z,90.31
2022-10-19T07:35:04.289Z,90.31
2022-10-19T07:36:04.210Z,90.10
2022-10-19T07:37:04.233Z,90.00
2022-10-19T07:38:04.201Z,90.41
2022-10-19T07:39:04.187Z,90.57
2022-10-19T07:40:04.157Z,90.06
2022-10-19T07:41:04.155Z,90.36
2022-10-19T07:42:04.153Z,89.96
2022-10-19T07:43:04.125Z,89.90
2022-10-19T07:44:04.103Z,90.00
2022-10-19T07:45:04.105Z,89.79
2022-10-19T07:46:04.094Z,90.00
2022-10-19T07:47:04.097Z,89.49
2022-10-19T07:48:04.054Z,89.59
2022-10-19T07:49:04.075Z,90.00
2022-10-19T07:50:04.065Z,90.20
2022-10-19T07:51:04.140Z,90.06
2022-10-19T07:52:04.005Z,90.00
2022-10-19T07:53:04.044Z,90.16
2022-10-19T07:54:03.983Z,90.16
2022-10-19T07:55:03.978Z,89.75
2022-10-19T07:56:03.968Z,90.06
2022-10-19T07:57:03.935Z,89.25
2022-10-19T07:58:03.953Z,89.86
2022-10-19T07:59:03.925Z,89.75
2022-10-19T08:00:03.915Z,89.25
2022-10-19T08:01:03.906Z,89.34
2022-10-19T08:02:03.928Z,89.30
2022-10-19T08:03:57.522Z,88.84
2022-10-19T08:05:07.851Z,88.73
2022-10-19T08:06:04.877Z,88.63
2022-10-19T08:07:03.856Z,89.14
2022-10-19T08:08:03.805Z,88.93
2022-10-19T08:09:03.884Z,88.69
2022-10-19T08:10:10.938Z,89.10
2022-10-19T08:11:03.818Z,88.90
2022-10-19T08:12:03.748Z,88.90
2022-10-19T08:13:03.739Z,88.45
2022-10-19T08:14:03.741Z,88.45
2022-10-19T08:15:03.739Z,87.94
2022-10-19T08:16:03.759Z,87.84
2022-10-19T08:17:03.700Z,87.73
2022-10-19T08:18:03.691Z,88.14
2022-10-19T08:19:03.675Z,88.04
2022-10-19T08:20:03.768Z,87.94
2022-10-19T08:21:03.659Z,88.24
2022-10-19T08:22:03.670Z,88.18
2022-10-19T08:23:03.609Z,88.39
2022-10-19T08:24:03.589Z,88.79
2022-10-19T08:25:03.627Z,89.10
2022-10-19T08:26:03.678Z,89.30
2022-10-19T08:27:03.560Z,89.71
2022-10-19T08:28:03.564Z,90.12
2022-10-19T08:29:03.538Z,90.88
2022-10-19T08:30:03.521Z,92.14
2022-10-19T08:31:03.570Z,93.37
2022-10-19T08:32:03.500Z,94.38
2022-10-19T08:33:03.491Z,95.20
2022-10-19T08:34:03.472Z,96.17
2022-10-19T08:35:07.211Z,97.29
2022-10-19T08:36:04.461Z,98.15
2022-10-19T08:37:10.244Z,98.86
2022-10-19T08:38:04.419Z,99.07
2022-10-19T08:39:03.451Z,99.58
2022-10-19T08:40:03.417Z,99.68
2022-10-19T08:41:03.381Z,99.89
2022-10-19T08:42:03.400Z,99.68
2022-10-19T08:43:03.367Z,99.79
2022-10-19T08:44:06.231Z,99.58
2022-10-19T08:45:04.341Z,99.38
2022-10-19T08:46:03.332Z,99.38
2022-10-19T08:47:03.888Z,99.38
2022-10-19T08:48:03.345Z,99.07
2022-10-19T08:49:03.340Z,98.97
2022-10-19T08:50:03.277Z,98.86
2022-10-19T08:51:03.252Z,98.15
2022-10-19T08:52:03.242Z,98.21
2022-10-19T08:53:03.272Z,97.80
2022-10-19T08:54:04.700Z,97.60
2022-10-19T08:55:03.233Z,97.80
2022-10-19T08:56:04.448Z,97.75
2022-10-19T08:57:03.177Z,98.36
2022-10-19T08:58:03.173Z,97.04
2022-10-19T08:59:03.175Z,96.84
2022-10-19T09:00:03.155Z,96.33
2022-10-19T09:01:03.132Z,95.61
2022-10-19T09:02:03.131Z,95.97
2022-10-19T09:03:03.112Z,96.08
2022-10-19T09:04:03.200Z,95.77
2022-10-19T09:05:03.151Z,95.77
2022-10-19T09:06:03.062Z,95.87
2022-10-19T09:07:03.101Z,96.23
2022-10-19T09:08:03.031Z,95.21
2022-10-19T09:09:03.071Z,95.01
2022-10-19T09:10:03.054Z,94.91
2022-10-19T09:11:03.013Z,95.12
2022-10-19T09:12:02.993Z,93.79
2022-10-19T09:13:02.997Z,94.30
2022-10-19T09:14:05.423Z,93.69
2022-10-19T09:15:02.954Z,93.07
2022-10-19T09:16:02.965Z,93.79
2022-10-19T09:17:02.934Z,93.28
2022-10-19T09:18:02.932Z,93.13
2022-10-19T09:19:02.909Z,93.13
2022-10-19T09:20:02.895Z,92.63
2022-10-19T09:21:02.869Z,91.77
2022-10-19T09:22:02.959Z,92.27
2022-10-19T09:23:02.840Z,91.05
2022-10-19T09:24:02.832Z,90.14
2022-10-19T09:25:02.834Z,89.42
2022-10-19T09:26:02.805Z,88.51
2022-10-19T09:27:02.804Z,88.20
2022-10-19T09:28:02.805Z,88.06
2022-10-19T09:29:03.108Z,87.24
2022-10-19T09:30:02.797Z,87.14
2022-10-19T09:31:02.735Z,87.45
2022-10-19T09:32:02.734Z,87.45
2022-10-19T09:33:02.762Z,87.24
2022-10-19T09:34:02.693Z,86.49
2022-10-19T09:35:02.767Z,85.51
2022-10-19T09:36:02.715Z,86.22
2022-10-19T09:37:02.691Z,86.19
2022-10-19T09:38:02.648Z,85.68
2022-10-19T09:39:02.624Z,85.17
2022-10-19T09:40:02.615Z,85.27
2022-10-19T09:41:02.606Z,83.34
2022-10-19T09:42:02.596Z,82.73
2022-10-19T09:43:02.575Z,83.23
2022-10-19T09:44:02.576Z,82.42
2022-10-19T09:45:02.576Z,82.12
2022-10-19T09:46:02.547Z,83.03
2022-10-19T09:47:02.526Z,82.93
2022-10-19T09:48:08.792Z,80.79
2022-10-19T09:49:03.505Z,81.30
2022-10-19T09:50:02.504Z,81.20
2022-10-19T09:51:02.482Z,82.01
2022-10-19T09:52:02.456Z,81.30
2022-10-19T09:53:02.446Z,80.59
2022-10-19T09:54:02.435Z,80.29
2022-10-19T09:55:02.416Z,80.15
2022-10-19T09:56:02.444Z,80.35
2022-10-19T09:57:02.405Z,78.92
2022-10-19T09:58:02.377Z,78.62
2022-10-19T09:59:02.367Z,79.33
2022-10-19T10:00:02.379Z,79.63
2022-10-19T10:01:02.426Z,79.63
2022-10-19T10:03:02.317Z,77.29
2022-10-19T10:04:02.364Z,77.60
2022-10-19T10:05:02.340Z,77.81
2022-10-19T10:06:02.295Z,77.87
2022-10-19T10:07:02.277Z,76.86
2022-10-19T10:08:02.267Z,76.31
2022-10-19T10:09:02.425Z,75.40
2022-10-19T10:10:02.228Z,74.82
2022-10-19T10:11:02.218Z,75.12
2022-10-19T10:12:02.207Z,75.43
2022-10-19T10:13:02.208Z,74.72
